createdAt,value
2022-11-17T00:00:51.887Z,72.19
2022-11-17T00:01:51.922Z,70.74
2022-11-17T00:02:51.897Z,71.54
2022-11-17T00:03:51.852Z,68.96
2022-11-17T00:04:51.839Z,70.74
2022-11-17T00:05:51.830Z,71.06
2022-11-17T00:06:51.881Z,70.90
2022-11-17T00:07:51.813Z,70.58
2022-11-17T00:08:51.798Z,70.90
2022-11-17T00:09:51.776Z,71.38
2022-11-17T00:10:51.766Z,70.58
2022-11-17T00:11:51.778Z,69.13
2022-11-17T00:12:51.745Z,69.93
2022-11-17T00:13:51.738Z,70.90
2022-11-17T00:14:51.744Z,69.77
2022-11-17T00:15:51.712Z,69.61
2022-11-17T00:16:51.725Z,71.06
2022-11-17T00:17:51.691Z,69.77
2022-11-17T00:18:51.674Z,70.42
2022-11-17T00:19:51.665Z,69.93
2022-11-17T00:20:51.658Z,70.42
2022-11-17T00:21:51.663Z,70.58
2022-11-17T00:22:51.620Z,70.42
2022-11-17T00:23:51.710Z,68.96
2022-11-17T00:24:51.621Z,68.48
2022-11-17T00:25:51.600Z,68.96
2022-11-17T00:26:51.601Z,69.77
2022-11-17T00:27:51.580Z,68.96
2022-11-17T00:28:51.577Z,69.93
2022-11-17T00:29:51.562Z,69.29
2022-11-17T00:30:51.542Z,69.45
2022-11-17T00:31:51.565Z,70.09
2022-11-17T00:32:51.533Z,67.19
2022-11-17T00:33:51.525Z,65.58
2022-11-17T00:34:51.495Z,67.68
2022-11-17T00:35:51.501Z,69.93
2022-11-17T00:36:51.508Z,68.80
2022-11-17T00:37:51.490Z,67.84
2022-11-17T00:38:51.451Z,69.45
2022-11-17T00:39:55.210Z,71.54
2022-11-17T00:40:52.448Z,70.42
2022-11-17T00:41:51.440Z,69.45
2022-11-17T00:42:51.424Z,70.09
2022-11-17T00:43:51.399Z,70.90
2022-11-17T00:44:52.398Z,68.48
2022-11-17T00:45:51.389Z,70.58
2022-11-17T00:46:51.404Z,72.35
2022-11-17T00:47:51.360Z,71.06
2022-11-17T00:48:51.386Z,69.77
2022-11-17T00:49:51.348Z,70.42
2022-11-17T00:50:51.361Z,68.64
2022-11-17T00:51:51.344Z,73.48
2022-11-17T00:52:51.337Z,72.19
2022-11-17T00:53:51.335Z,69.77
2022-11-17T00:54:51.339Z,71.22
2022-11-17T00:55:51.422Z,73.15
2022-11-17T00:56:51.277Z,71.38
2022-11-17T00:57:52.312Z,72.67
2022-11-17T00:58:51.248Z,73.32
2022-11-17T00:59:51.238Z,72.03
2022-11-17T01:00:51.233Z,69.77
2022-11-17T01:01:51.305Z,70.90
2022-11-17T01:02:51.208Z,70.90
2022-11-17T01:03:51.196Z,68.96
2022-11-17T01:04:51.189Z,70.90
2022-11-17T01:05:51.172Z,70.90
2022-11-17T01:06:51.256Z,71.87
2022-11-17T01:07:51.163Z,70.42
2022-11-17T01:08:51.193Z,70.25
2022-11-17T01:09:51.174Z,70.58
2022-11-17T01:10:51.179Z,70.74
2022-11-17T01:11:51.323Z,72.19
2022-11-17T01:12:51.827Z,69.93
2022-11-17T01:13:51.810Z,69.61
2022-11-17T01:14:51.169Z,69.93
2022-11-17T01:15:51.141Z,70.09
2022-11-17T01:16:51.168Z,68.32
2022-11-17T01:17:51.049Z,64.61
2022-11-17T01:18:51.826Z,65.74
2022-11-17T01:19:51.157Z,70.25
2022-11-17T01:20:51.023Z,69.29
2022-11-17T01:21:51.148Z,65.10
2022-11-17T01:22:50.993Z,69.45
2022-11-17T01:23:50.977Z,69.13
2022-11-17T01:24:50.980Z,66.39
2022-11-17T01:25:50.971Z,69.61
2022-11-17T01:26:51.007Z,67.35
2022-11-17T01:27:51.021Z,66.23
2022-11-17T01:28:50.934Z,69.93
2022-11-17T01:29:50.929Z,69.29
2022-11-17T01:30:50.906Z,69.13
2022-11-17T01:31:50.921Z,69.13
2022-11-17T01:32:50.886Z,68.64
2022-11-17T01:33:50.866Z,66.55
2022-11-17T01:34:50.864Z,70.25
2022-11-17T01:35:50.854Z,64.29
2022-11-17T01:36:50.861Z,71.06
2022-11-17T01:37:50.828Z,68.32
2022-11-17T01:38:50.816Z,63.97
2022-11-17T01:39:50.804Z,66.71
2022-11-17T01:40:50.801Z,64.94
2022-11-17T01:41:50.833Z,68.64
2022-11-17T01:42:50.779Z,68.16
2022-11-17T01:43:50.851Z,66.39
2022-11-17T01:44:50.760Z,68.48
2022-11-17T01:45:50.775Z,66.23
2022-11-17T01:46:50.744Z,70.90
2022-11-17T01:47:50.721Z,63.49
2022-11-17T01:48:50.714Z,67.35
2022-11-17T01:49:50.707Z,66.87
2022-11-17T01:50:50.694Z,66.55
2022-11-17T01:51:50.705Z,71.87
2022-11-17T01:52:50.701Z,70.90
2022-11-17T01:53:50.664Z,70.74
2022-11-17T01:54:50.648Z,66.23
2022-11-17T01:55:50.646Z,70.42
2022-11-17T01:56:50.654Z,70.90
2022-11-17T01:57:50.620Z,70.58
2022-11-17T01:58:50.604Z,71.87
2022-11-17T01:59:50.679Z,68.00
2022-11-17T02:00:50.598Z,69.45
2022-11-17T02:01:50.641Z,70.90
2022-11-17T02:02:50.568Z,71.38
2022-11-17T02:03:50.566Z,66.87
2022-11-17T02:04:50.549Z,69.77
2022-11-17T02:05:50.546Z,70.42
2022-11-17T02:06:50.599Z,70.25
2022-11-17T02:07:50.528Z,68.80
2022-11-17T02:08:50.510Z,70.09
2022-11-17T02:09:50.549Z,65.90
2022-11-17T02:10:51.918Z,68.64
2022-11-17T02:11:50.627Z,70.90
2022-11-17T02:12:50.556Z,70.42
2022-11-17T02:13:50.546Z,67.84
2022-11-17T02:14:50.511Z,70.74
2022-11-17T02:15:50.560Z,69.77
2022-11-17T02:16:51.301Z,71.87
2022-11-17T02:17:50.494Z,70.58
2022-11-17T02:18:50.388Z,68.00
2022-11-17T02:19:50.386Z,72.19
2022-11-17T02:20:50.383Z,69.93
2022-11-17T02:21:50.390Z,67.35
2022-11-17T02:22:50.351Z,68.00
2022-11-17T02:23:50.342Z,70.09
2022-11-17T02:24:50.342Z,70.42
2022-11-17T02:25:50.335Z,70.25
2022-11-17T02:26:50.341Z,70.90
2022-11-17T02:27:50.308Z,69.45
2022-11-17T02:28:50.296Z,70.74
2022-11-17T02:29:50.292Z,70.74
2022-11-17T02:30:50.290Z,71.38
2022-11-17T02:31:50.361Z,70.90
2022-11-17T02:32:50.278Z,71.54
2022-11-17T02:33:50.259Z,71.06
2022-11-17T02:34:50.247Z,72.03
2022-11-17T02:35:50.232Z,71.06
2022-11-17T02:36:50.212Z,72.19
2022-11-17T02:37:50.248Z,70.58
2022-11-17T02:38:50.197Z,70.58
2022-11-17T02:39:50.190Z,70.25
2022-11-17T02:40:50.178Z,71.54
2022-11-17T02:41:50.175Z,69.61
2022-11-17T02:42:50.165Z,70.09
2022-11-17T02:43:50.148Z,69.29
2022-11-17T02:44:50.137Z,70.09
2022-11-17T02:45:50.122Z,66.55
2022-11-17T02:46:50.107Z,72.03
2022-11-17T02:47:50.216Z,71.54
2022-11-17T02:48:50.085Z,72.03
2022-11-17T02:49:50.080Z,70.90
2022-11-17T02:50:50.090Z,69.93
2022-11-17T02:51:50.051Z,69.29
2022-11-17T02:52:50.092Z,71.22
2022-11-17T02:53:50.033Z,69.29
2022-11-17T02:54:50.032Z,68.96
2022-11-17T02:55:50.022Z,68.64
2022-11-17T02:56:50.047Z,69.29
2022-11-17T02:57:50.013Z,71.54
2022-11-17T02:58:49.982Z,65.90
2022-11-17T02:59:49.979Z,66.39
2022-11-17T03:00:49.968Z,68.32
2022-11-17T03:01:50.008Z,68.96
2022-11-17T03:02:49.966Z,69.13
2022-11-17T03:03:49.939Z,70.25
2022-11-17T03:04:49.930Z,71.87
2022-11-17T03:05:49.911Z,71.06
2022-11-17T03:06:49.936Z,71.70
2022-11-17T03:07:49.910Z,67.35
2022-11-17T03:08:49.888Z,70.74
2022-11-17T03:09:49.871Z,70.42
2022-11-17T03:10:49.860Z,68.00
2022-11-17T03:11:49.893Z,69.29
2022-11-17T03:12:49.860Z,65.26
2022-11-17T03:13:49.835Z,69.13
2022-11-17T03:14:49.811Z,70.90
2022-11-17T03:15:49.820Z,71.38
2022-11-17T03:16:49.801Z,69.45
2022-11-17T03:17:49.811Z,70.25
2022-11-17T03:18:49.777Z,69.13
2022-11-17T03:19:49.845Z,67.84
2022-11-17T03:20:49.769Z,71.22
2022-11-17T03:21:49.750Z,69.77
2022-11-17T03:22:49.750Z,70.42
2022-11-17T03:23:49.733Z,70.74
2022-11-17T03:24:49.717Z,70.42
2022-11-17T03:25:49.706Z,70.90
2022-11-17T03:26:49.700Z,71.87
2022-11-17T03:27:49.706Z,72.67
2022-11-17T03:28:49.676Z,71.70
2022-11-17T03:29:49.661Z,69.61
2022-11-17T03:30:49.647Z,71.87
2022-11-17T03:31:49.646Z,72.51
2022-11-17T03:32:49.665Z,69.45
2022-11-17T03:33:49.627Z,68.16
2022-11-17T03:34:49.611Z,69.93
2022-11-17T03:35:50.849Z,71.54
2022-11-17T03:36:50.597Z,71.38
2022-11-17T03:37:49.603Z,70.42
2022-11-17T03:38:49.572Z,73.96
2022-11-17T03:39:49.566Z,72.51
2022-11-17T03:40:49.557Z,74.12
2022-11-17T03:41:49.547Z,72.51
2022-11-17T03:42:49.543Z,72.99
2022-11-17T03:43:49.526Z,70.90
2022-11-17T03:44:49.508Z,71.54
2022-11-17T03:45:49.500Z,72.67
2022-11-17T03:46:49.492Z,71.54
2022-11-17T03:47:49.498Z,70.42
2022-11-17T03:48:49.472Z,70.42
2022-11-17T03:49:49.455Z,71.22
2022-11-17T03:50:49.455Z,75.25
2022-11-17T03:51:49.442Z,72.35
2022-11-17T03:52:49.454Z,70.09
2022-11-17T03:53:49.417Z,69.93
2022-11-17T03:54:49.413Z,74.28
2022-11-17T03:55:49.403Z,71.54
2022-11-17T03:56:49.382Z,72.35
2022-11-17T03:57:49.400Z,69.45
2022-11-17T03:58:49.372Z,72.51
2022-11-17T03:59:49.370Z,70.58
2022-11-17T04:00:49.353Z,70.42
2022-11-17T04:01:49.374Z,70.90
2022-11-17T04:02:49.349Z,71.06
2022-11-17T04:03:49.320Z,72.19
2022-11-17T04:04:49.315Z,71.54
2022-11-17T04:05:49.299Z,71.54
2022-11-17T04:06:49.354Z,70.09
2022-11-17T04:07:49.298Z,69.45
2022-11-17T04:08:49.275Z,70.58
2022-11-17T04:09:49.247Z,70.42
2022-11-17T04:10:49.242Z,72.19
2022-11-17T04:11:49.245Z,72.03
2022-11-17T04:12:49.258Z,69.45
2022-11-17T04:13:49.207Z,72.51
2022-11-17T04:14:49.205Z,72.35
2022-11-17T04:15:49.198Z,71.22
2022-11-17T04:16:49.188Z,69.77
2022-11-17T04:17:49.194Z,69.45
2022-11-17T04:18:49.166Z,71.38
2022-11-17T04:19:49.154Z,70.90
2022-11-17T04:20:49.147Z,69.93
2022-11-17T04:21:49.134Z,69.61
2022-11-17T04:22:49.148Z,66.39
2022-11-17T04:23:49.130Z,68.00
2022-11-17T04:24:49.106Z,67.68
2022-11-17T04:25:49.088Z,68.96
2022-11-17T04:26:49.086Z,70.74
2022-11-17T04:27:49.092Z,69.61
2022-11-17T04:28:49.059Z,72.03
2022-11-17T04:29:49.053Z,68.64
2022-11-17T04:30:49.043Z,68.80
2022-11-17T04:31:49.066Z,68.32
2022-11-17T04:32:49.042Z,69.45
2022-11-17T04:33:49.005Z,70.90
2022-11-17T04:34:49.002Z,72.51
2022-11-17T04:35:48.997Z,71.22
2022-11-17T04:36:48.980Z,69.61
2022-11-17T04:37:49.014Z,69.45
2022-11-17T04:38:48.961Z,73.64
2022-11-17T04:39:48.961Z,73.15
2022-11-17T04:40:48.949Z,70.25
2022-11-17T04:41:48.938Z,70.25
2022-11-17T04:42:48.978Z,72.19
2022-11-17T04:43:48.920Z,70.42
2022-11-17T04:44:48.903Z,70.58
2022-11-17T04:45:48.889Z,67.03
2022-11-17T04:46:48.878Z,69.93
2022-11-17T04:47:48.882Z,70.58
2022-11-17T04:48:48.861Z,70.74
2022-11-17T04:49:48.842Z,68.64
2022-11-17T04:50:48.833Z,69.93
2022-11-17T04:51:48.837Z,68.32
2022-11-17T04:52:48.837Z,72.03
2022-11-17T04:53:48.799Z,71.54
2022-11-17T04:54:48.802Z,70.42
2022-11-17T04:55:48.872Z,70.90
2022-11-17T04:56:48.780Z,69.45
2022-11-17T04:57:48.788Z,70.09
2022-11-17T04:58:48.759Z,70.74
2022-11-17T04:59:48.749Z,72.99
2022-11-17T05:00:48.746Z,69.61
2022-11-17T05:01:48.768Z,69.77
2022-11-17T05:02:48.735Z,69.45
2022-11-17T05:03:48.709Z,71.70
2022-11-17T05:04:48.698Z,73.48
2022-11-17T05:05:48.691Z,71.22
2022-11-17T05:06:48.677Z,72.51
2022-11-17T05:07:48.684Z,73.80
2022-11-17T05:08:48.662Z,68.96
2022-11-17T05:09:48.657Z,71.54
2022-11-17T05:10:48.668Z,69.45
2022-11-17T05:11:48.720Z,71.87
2022-11-17T05:12:48.640Z,66.71
2022-11-17T05:13:48.632Z,70.58
2022-11-17T05:14:48.622Z,72.51
2022-11-17T05:15:48.593Z,70.90
2022-11-17T05:16:48.576Z,70.09
2022-11-17T05:17:48.600Z,70.42
2022-11-17T05:18:48.557Z,71.87
2022-11-17T05:19:48.562Z,71.70
2022-11-17T05:20:48.542Z,71.22
2022-11-17T05:21:48.559Z,71.70
2022-11-17T05:22:48.572Z,71.87
2022-11-17T05:23:48.509Z,72.67
2022-11-17T05:24:48.502Z,70.42
2022-11-17T05:25:48.493Z,71.38
2022-11-17T05:26:48.483Z,73.64
2022-11-17T05:27:48.572Z,70.58
2022-11-17T05:28:48.461Z,70.90
2022-11-17T05:29:48.451Z,71.54
2022-11-17T05:30:48.439Z,70.09
2022-11-17T05:31:48.434Z,73.64
2022-11-17T05:32:48.442Z,75.25
2022-11-17T05:33:48.405Z,74.93
2022-11-17T05:34:48.405Z,71.70
2022-11-17T05:35:48.395Z,71.54
2022-11-17T05:36:48.381Z,73.64
2022-11-17T05:37:48.369Z,73.15
2022-11-17T05:38:48.393Z,75.09
2022-11-17T05:39:48.347Z,75.25
2022-11-17T05:40:48.342Z,75.25
2022-11-17T05:41:48.334Z,73.32
2022-11-17T05:42:50.724Z,72.99
2022-11-17T05:43:48.324Z,71.87
2022-11-17T05:44:48.315Z,75.41
2022-11-17T05:45:48.293Z,74.60
2022-11-17T05:46:48.285Z,73.64
2022-11-17T05:47:48.271Z,74.28
2022-11-17T05:48:48.286Z,76.70
2022-11-17T05:49:48.249Z,76.05
2022-11-17T05:50:48.242Z,72.83
2022-11-17T05:51:52.445Z,71.70
2022-11-17T05:52:49.227Z,75.89
2022-11-17T05:53:48.232Z,73.96
2022-11-17T05:54:48.190Z,75.25
2022-11-17T05:55:48.188Z,74.77
2022-11-17T05:56:48.185Z,73.32
2022-11-17T05:57:48.174Z,74.28
2022-11-17T05:58:48.174Z,73.96
2022-11-17T05:59:48.234Z,74.44
2022-11-17T06:00:48.148Z,73.96
2022-11-17T06:01:48.137Z,74.77
2022-11-17T06:02:48.110Z,73.96
2022-11-17T06:03:48.202Z,74.28
2022-11-17T06:07:06.920Z,74.77
2022-11-17T06:08:06.832Z,76.86
2022-11-17T06:09:06.798Z,73.64
2022-11-17T06:10:06.789Z,73.80
2022-11-17T06:11:06.780Z,74.44
2022-11-17T06:12:06.844Z,75.73
2022-11-17T06:13:06.783Z,74.28
2022-11-17T06:14:06.750Z,74.93
2022-11-17T06:15:06.829Z,75.25
2022-11-17T06:16:06.735Z,74.12
2022-11-17T06:17:06.714Z,73.15
2022-11-17T06:18:06.764Z,73.64
2022-11-17T06:19:06.697Z,75.89
2022-11-17T06:20:07.813Z,75.09
2022-11-17T06:21:07.803Z,75.73
2022-11-17T06:22:12.788Z,75.25
2022-11-17T06:23:09.798Z,76.05
2022-11-17T06:24:07.768Z,74.44
2022-11-17T06:25:07.756Z,74.12
2022-11-17T06:26:07.743Z,74.28
2022-11-17T06:27:07.725Z,72.19
2022-11-17T06:28:08.743Z,75.25
2022-11-17T06:29:07.727Z,74.28
2022-11-17T06:30:07.703Z,74.12
2022-11-17T06:31:07.773Z,73.96
2022-11-17T06:32:07.683Z,76.70
2022-11-17T06:33:07.690Z,77.50
2022-11-17T06:34:07.651Z,74.77
2022-11-17T06:35:07.651Z,75.57
2022-11-17T06:36:07.638Z,76.05
2022-11-17T06:37:07.628Z,75.41
2022-11-17T06:38:07.636Z,75.73
2022-11-17T06:39:07.606Z,79.28
2022-11-17T06:40:07.612Z,75.41
2022-11-17T06:41:11.827Z,75.09
2022-11-17T06:42:08.603Z,75.89
2022-11-17T06:43:07.619Z,75.89
2022-11-17T06:44:07.559Z,75.57
2022-11-17T06:45:07.553Z,76.38
2022-11-17T06:46:07.543Z,74.44
2022-11-17T06:47:07.615Z,74.28
2022-11-17T06:48:07.539Z,74.12
2022-11-17T06:49:07.507Z,74.77
2022-11-17T06:50:07.490Z,75.89
2022-11-17T06:51:07.488Z,75.57
2022-11-17T06:52:07.479Z,74.77
2022-11-17T06:53:07.486Z,73.96
2022-11-17T06:54:07.461Z,74.44
2022-11-17T06:55:07.447Z,74.12
2022-11-17T06:56:07.442Z,75.41
2022-11-17T06:57:07.430Z,77.18
2022-11-17T06:58:07.426Z,77.34
2022-11-17T06:59:07.409Z,77.02
2022-11-17T07:00:07.444Z,76.22
2022-11-17T07:01:07.391Z,76.22
2022-11-17T07:02:07.364Z,75.41
2022-11-17T07:03:07.467Z,76.54
2022-11-17T07:04:07.364Z,74.93
2022-11-17T07:05:07.347Z,73.96
2022-11-17T07:06:07.330Z,75.25
2022-11-17T07:07:07.405Z,75.41
2022-11-17T07:08:08.367Z,76.38
2022-11-17T07:09:08.306Z,74.93
2022-11-17T07:10:07.293Z,75.41
2022-11-17T07:11:07.299Z,74.93
2022-11-17T07:12:07.273Z,76.86
2022-11-17T07:13:07.279Z,74.93
2022-11-17T07:14:07.250Z,74.12
2022-11-17T07:15:07.238Z,72.83
2022-11-17T07:16:08.230Z,72.83
2022-11-17T07:17:07.224Z,73.32
2022-11-17T07:18:07.198Z,73.48
2022-11-17T07:19:07.381Z,73.32
2022-11-17T07:20:07.186Z,73.15
2022-11-17T07:21:07.240Z,75.57
2022-11-17T07:22:07.153Z,72.03
2022-11-17T07:23:07.159Z,72.51
2022-11-17T07:24:07.176Z,72.35
2022-11-17T07:25:07.205Z,72.83
2022-11-17T07:26:07.181Z,70.74
2022-11-17T07:27:07.124Z,72.83
2022-11-17T07:28:07.103Z,72.03
2022-11-17T07:29:07.121Z,73.15
2022-11-17T07:30:07.078Z,70.42
2022-11-17T07:31:07.065Z,72.51
2022-11-17T07:32:07.067Z,72.67
2022-11-17T07:33:07.048Z,72.03
2022-11-17T07:34:07.055Z,73.15
2022-11-17T07:35:07.116Z,73.64
2022-11-17T07:36:07.029Z,70.74
2022-11-17T07:37:07.010Z,70.58
2022-11-17T07:38:06.995Z,71.06
2022-11-17T07:39:07.010Z,70.90
2022-11-17T07:40:06.986Z,71.22
2022-11-17T07:41:06.993Z,75.09
2022-11-17T07:42:06.956Z,70.42
2022-11-17T07:43:06.949Z,74.12
2022-11-17T07:44:06.964Z,71.87
2022-11-17T07:45:06.925Z,69.29
2022-11-17T07:46:06.905Z,71.38
2022-11-17T07:47:06.912Z,68.48
2022-11-17T07:48:06.896Z,71.38
2022-11-17T07:49:06.905Z,67.84
2022-11-17T07:50:06.869Z,69.61
2022-11-17T07:51:06.944Z,70.74
2022-11-17T07:52:06.854Z,67.51
2022-11-17T07:53:06.842Z,68.48
2022-11-17T07:54:06.842Z,67.35
2022-11-17T07:55:06.822Z,69.61
2022-11-17T07:56:06.816Z,70.25
2022-11-17T07:57:06.803Z,72.19
2022-11-17T07:58:06.791Z,70.74
2022-11-17T07:59:06.801Z,71.38
2022-11-17T08:00:06.775Z,71.22
2022-11-17T08:01:06.832Z,69.93
2022-11-17T08:02:06.735Z,74.12
2022-11-17T08:03:06.741Z,68.96
2022-11-17T08:04:06.840Z,68.32
2022-11-17T08:05:06.717Z,69.13
2022-11-17T08:06:06.708Z,70.42
2022-11-17T08:07:06.746Z,70.74
2022-11-17T08:08:06.694Z,71.38
2022-11-17T08:09:06.701Z,68.96
2022-11-17T08:10:06.679Z,69.77
2022-11-17T08:11:06.656Z,67.19
2022-11-17T08:12:06.653Z,67.19
2022-11-17T08:13:06.646Z,69.61
2022-11-17T08:14:06.642Z,68.80
2022-11-17T08:15:06.627Z,67.84
2022-11-17T08:16:06.609Z,72.03
2022-11-17T08:17:06.602Z,70.09
2022-11-17T08:18:06.594Z,69.77
2022-11-17T08:19:06.592Z,69.93
2022-11-17T08:20:06.566Z,71.38
2022-11-17T08:21:06.557Z,69.93
2022-11-17T08:22:06.546Z,68.48
2022-11-17T08:23:06.627Z,69.45
2022-11-17T08:24:06.551Z,70.25
2022-11-17T08:25:06.525Z,70.09
2022-11-17T08:26:06.511Z,71.54
2022-11-17T08:27:06.505Z,70.42
2022-11-17T08:28:06.505Z,72.35
2022-11-17T08:29:06.510Z,73.64
2022-11-17T08:30:06.470Z,67.03
2022-11-17T08:31:06.473Z,70.42
2022-11-17T08:32:06.452Z,71.06
2022-11-17T08:33:06.444Z,68.16
2022-11-17T08:34:06.446Z,69.45
2022-11-17T08:35:06.425Z,69.93
2022-11-17T08:36:06.399Z,69.77
2022-11-17T08:37:06.400Z,70.09
2022-11-17T08:38:06.392Z,69.61
2022-11-17T08:39:06.496Z,68.16
2022-11-17T08:40:06.382Z,68.64
2022-11-17T08:41:06.355Z,69.77
2022-11-17T08:42:06.347Z,70.09
2022-11-17T08:43:06.339Z,70.09
2022-11-17T08:44:06.351Z,67.35
2022-11-17T08:45:06.328Z,66.55
2022-11-17T08:46:06.340Z,67.03
2022-11-17T08:47:06.302Z,69.13
2022-11-17T08:48:06.291Z,67.84
2022-11-17T08:49:06.301Z,67.84
2022-11-17T08:50:06.262Z,67.19
2022-11-17T08:51:06.262Z,66.39
2022-11-17T08:52:06.245Z,68.32
2022-11-17T08:53:06.238Z,70.74
2022-11-17T08:54:06.240Z,68.00
2022-11-17T08:55:06.243Z,70.09
2022-11-17T08:56:06.213Z,68.96
2022-11-17T08:57:06.274Z,66.71
2022-11-17T08:58:06.186Z,68.96
2022-11-17T08:59:06.204Z,68.48
2022-11-17T09:00:06.166Z,78.79
2022-11-17T09:01:06.286Z,69.13
2022-11-17T09:02:06.143Z,69.13
2022-11-17T09:03:06.138Z,70.90
2022-11-17T09:04:06.151Z,67.84
2022-11-17T09:05:06.113Z,67.35
2022-11-17T09:06:06.103Z,67.68
2022-11-17T09:07:06.154Z,67.51
2022-11-17T09:08:22.734Z,72.03
2022-11-17T09:09:08.103Z,67.19
2022-11-17T09:10:06.066Z,67.51
2022-11-17T09:11:06.145Z,79.28
2022-11-17T09:12:06.957Z,69.61
2022-11-17T09:13:06.035Z,66.71
2022-11-17T09:14:06.048Z,69.13
2022-11-17T09:15:06.036Z,68.32
2022-11-17T09:16:06.003Z,65.10
2022-11-17T09:17:05.997Z,65.74
2022-11-17T09:18:05.983Z,65.26
2022-11-17T09:19:06.004Z,69.13
2022-11-17T09:20:05.964Z,66.39
2022-11-17T09:21:05.954Z,67.84
2022-11-17T09:22:05.953Z,66.06
2022-11-17T09:23:05.936Z,65.26
2022-11-17T09:24:05.947Z,67.84
2022-11-17T09:25:10.375Z,67.19
2022-11-17T09:26:06.905Z,67.19
2022-11-17T09:27:05.895Z,65.10
2022-11-17T09:28:05.886Z,66.55
2022-11-17T09:29:05.893Z,67.51
2022-11-17T09:30:05.869Z,70.25
2022-11-17T09:31:05.922Z,68.32
2022-11-17T09:32:05.848Z,69.61
2022-11-17T09:33:05.828Z,67.68
2022-11-17T09:34:06.206Z,68.64
2022-11-17T09:35:05.815Z,67.19
2022-11-17T09:36:05.810Z,67.03
2022-11-17T09:37:05.791Z,66.39
2022-11-17T09:38:05.788Z,67.03
2022-11-17T09:39:05.808Z,67.84
2022-11-17T09:40:05.770Z,68.32
2022-11-17T09:41:05.748Z,68.48
2022-11-17T09:42:05.766Z,69.45
2022-11-17T09:43:05.818Z,67.19
2022-11-17T09:44:05.744Z,67.03
2022-11-17T09:45:05.711Z,66.71
2022-11-17T09:46:07.685Z,64.29
2022-11-17T09:47:06.704Z,68.32
2022-11-17T09:48:33.691Z,70.42
2022-11-17T09:49:07.703Z,67.84
2022-11-17T09:50:05.750Z,67.51
2022-11-17T09:51:05.680Z,69.93
2022-11-17T09:52:05.655Z,67.51
2022-11-17T09:53:05.639Z,68.00
2022-11-17T09:54:05.649Z,68.00
2022-11-17T09:55:05.628Z,69.45
2022-11-17T09:56:05.609Z,69.77
2022-11-17T09:57:05.603Z,68.48
2022-11-17T09:58:05.589Z,68.96
2022-11-17T09:59:05.590Z,68.96
2022-11-17T10:00:06.570Z,69.61
2022-11-17T10:01:05.561Z,68.96
2022-11-17T10:02:05.569Z,70.90
2022-11-17T10:03:05.539Z,68.80
2022-11-17T10:04:05.549Z,68.48
2022-11-17T10:05:05.516Z,68.80
2022-11-17T10:06:05.517Z,69.61
2022-11-17T10:07:05.545Z,68.64
2022-11-17T10:08:05.535Z,67.84
2022-11-17T10:09:05.551Z,69.93
2022-11-17T10:10:06.470Z,66.23
2022-11-17T10:11:06.020Z,68.64
2022-11-17T10:12:05.467Z,67.35
2022-11-17T10:13:05.514Z,65.10
2022-11-17T10:14:05.460Z,67.19
2022-11-17T10:15:05.494Z,68.96
2022-11-17T10:16:05.399Z,70.09
2022-11-17T10:17:05.397Z,66.39
2022-11-17T10:18:05.382Z,68.16
2022-11-17T10:19:05.398Z,66.71
2022-11-17T10:20:05.370Z,65.74
2022-11-17T10:21:05.362Z,66.39
2022-11-17T10:22:05.356Z,65.26
2022-11-17T10:23:05.457Z,68.16
2022-11-17T10:24:05.389Z,66.39
2022-11-17T10:25:05.459Z,65.42
2022-11-17T10:26:05.344Z,64.45
2022-11-17T10:27:05.360Z,68.48
2022-11-17T10:28:05.384Z,65.58
2022-11-17T10:29:08.561Z,67.51
2022-11-17T10:30:06.275Z,67.84
2022-11-17T10:31:05.408Z,66.71
2022-11-17T10:32:05.356Z,66.71
2022-11-17T10:33:05.396Z,66.06
2022-11-17T10:34:05.355Z,67.68
2022-11-17T10:35:05.212Z,66.87
2022-11-17T10:36:05.205Z,66.87
2022-11-17T10:37:05.198Z,67.84
2022-11-17T10:38:05.182Z,67.19
2022-11-17T10:39:05.322Z,67.68
2022-11-17T10:40:05.175Z,68.80
2022-11-17T10:41:05.160Z,68.00
2022-11-17T10:42:05.150Z,69.77
2022-11-17T10:43:05.139Z,66.06
2022-11-17T10:44:05.157Z,67.84
2022-11-17T10:45:05.123Z,67.84
2022-11-17T10:46:05.109Z,68.16
2022-11-17T10:47:05.088Z,69.61
2022-11-17T10:48:06.089Z,68.64
2022-11-17T10:49:05.163Z,65.90
2022-11-17T10:50:05.111Z,72.19
2022-11-17T10:51:05.065Z,68.80
2022-11-17T10:52:05.053Z,69.77
2022-11-17T10:53:08.725Z,69.29
2022-11-17T10:54:06.023Z,68.80
2022-11-17T10:55:05.041Z,71.38
2022-11-17T10:56:05.008Z,68.32
2022-11-17T10:57:05.002Z,65.90
2022-11-17T10:58:05.005Z,68.32
2022-11-17T10:59:04.975Z,68.80
2022-11-17T11:00:04.997Z,67.68
2022-11-17T11:01:04.996Z,67.35
2022-11-17T11:02:04.940Z,69.61
2022-11-17T11:03:04.952Z,70.74
2022-11-17T11:04:04.933Z,70.09
2022-11-17T11:05:04.940Z,71.87
2022-11-17T11:06:04.930Z,71.70
2022-11-17T11:07:05.003Z,68.32
2022-11-17T11:08:04.925Z,69.13
2022-11-17T11:09:04.915Z,68.48
2022-11-17T11:10:04.921Z,69.61
2022-11-17T11:11:04.843Z,67.19
2022-11-17T11:12:05.847Z,67.84
2022-11-17T11:13:04.835Z,68.64
2022-11-17T11:14:04.820Z,68.00
2022-11-17T11:15:04.879Z,69.45
2022-11-17T11:16:04.812Z,69.45
2022-11-17T11:17:04.801Z,68.48
2022-11-17T11:18:04.775Z,70.25
2022-11-17T11:19:04.780Z,69.13
2022-11-17T11:20:04.783Z,69.93
2022-11-17T11:21:04.804Z,68.80
2022-11-17T11:22:04.771Z,68.00
2022-11-17T11:23:04.764Z,69.13
2022-11-17T11:24:04.776Z,69.77
2022-11-17T11:25:04.811Z,69.45
2022-11-17T11:26:04.760Z,72.35
2022-11-17T11:27:04.764Z,67.51
2022-11-17T11:28:04.799Z,69.77
2022-11-17T11:29:04.709Z,69.61
2022-11-17T11:30:04.693Z,67.68
2022-11-17T11:31:04.720Z,69.45
2022-11-17T11:32:04.647Z,67.19
2022-11-17T11:33:04.632Z,68.32
2022-11-17T11:34:04.623Z,67.51
2022-11-17T11:35:04.633Z,66.23
2022-11-17T11:36:04.606Z,69.77
2022-11-17T11:37:04.594Z,67.68
2022-11-17T11:38:04.574Z,68.16
2022-11-17T11:39:04.576Z,67.51
2022-11-17T11:40:04.605Z,69.29
2022-11-17T11:41:04.557Z,69.61
2022-11-17T11:42:07.940Z,68.64
2022-11-17T11:43:04.527Z,68.64
2022-11-17T11:44:04.524Z,68.00
2022-11-17T11:45:04.533Z,67.03
2022-11-17T11:46:04.491Z,67.35
2022-11-17T11:47:04.488Z,69.29
2022-11-17T11:48:04.486Z,67.84
2022-11-17T11:49:04.470Z,68.00
2022-11-17T11:50:04.479Z,68.96
2022-11-17T11:51:04.569Z,70.42
2022-11-17T11:52:04.449Z,70.58
2022-11-17T11:53:04.433Z,70.09
2022-11-17T11:54:04.420Z,69.93
2022-11-17T11:55:04.451Z,68.96
2022-11-17T11:56:04.404Z,71.87
2022-11-17T11:57:04.399Z,71.54
2022-11-17T11:58:04.376Z,72.67
2022-11-17T11:59:04.367Z,70.25
2022-11-17T12:00:05.084Z,72.03
2022-11-17T12:01:05.351Z,71.38
2022-11-17T12:02:04.344Z,70.58
2022-11-17T12:03:04.420Z,68.48
2022-11-17T12:04:04.330Z,67.03
2022-11-17T12:05:04.334Z,71.06
2022-11-17T12:06:04.305Z,70.74
2022-11-17T12:07:04.332Z,70.74
2022-11-17T12:08:10.159Z,71.87
2022-11-17T12:09:05.275Z,71.22
2022-11-17T12:10:04.284Z,70.74
2022-11-17T12:11:04.261Z,68.00
2022-11-17T12:12:04.250Z,70.74
2022-11-17T12:13:04.233Z,70.58
2022-11-17T12:14:04.227Z,69.45
2022-11-17T12:15:04.241Z,68.00
2022-11-17T12:16:04.217Z,69.93
2022-11-17T12:17:04.181Z,68.00
2022-11-17T12:18:04.188Z,71.22
2022-11-17T12:19:04.180Z,70.42
2022-11-17T12:20:10.520Z,71.54
2022-11-17T12:21:05.248Z,69.93
2022-11-17T12:22:04.148Z,70.58
2022-11-17T12:23:04.136Z,68.80
2022-11-17T12:24:04.135Z,68.32
2022-11-17T12:25:04.127Z,71.38
2022-11-17T12:26:04.107Z,70.09
2022-11-17T12:27:04.111Z,70.74
2022-11-17T12:28:04.090Z,70.74
2022-11-17T12:29:04.073Z,69.45
2022-11-17T12:30:04.095Z,70.09
2022-11-17T12:31:09.704Z,69.93
2022-11-17T12:32:06.049Z,69.45
2022-11-17T12:33:04.042Z,69.45
2022-11-17T12:34:04.027Z,68.96
2022-11-17T12:35:04.037Z,68.32
2022-11-17T12:36:04.006Z,68.00
2022-11-17T12:37:03.987Z,68.48
2022-11-17T12:38:04.984Z,69.93
2022-11-17T12:39:03.981Z,69.45
2022-11-17T12:40:03.988Z,70.42
2022-11-17T12:41:03.945Z,67.68
2022-11-17T12:42:03.945Z,69.45
2022-11-17T12:43:03.968Z,66.87
2022-11-17T12:44:03.921Z,68.80
2022-11-17T12:45:03.928Z,69.93
2022-11-17T12:46:03.901Z,68.16
2022-11-17T12:47:03.898Z,69.13
2022-11-17T12:48:32.364Z,69.13
2022-11-17T12:49:05.889Z,68.96
2022-11-17T12:50:03.872Z,68.96
2022-11-17T12:51:05.161Z,68.48
2022-11-17T12:52:04.842Z,67.19
2022-11-17T12:53:03.814Z,67.35
2022-11-17T12:54:03.818Z,67.84
2022-11-17T12:55:03.833Z,67.68